Time;durP1;ratioP1;P1;durP2;ratioP2;P2;SDS_P1;SDS_P2;PMS_P1;PMS_P2;Temp;Humidity;BMP_temperature;BMP_pressure;BME280_temperature;BME280_humidity;BME280_pressure;Samples;Min_cycle;Max_cycle;Signal;HPM_P1;HPM_P2
2023/08/26 00:01:48;0.00;0.00;0.62;0.00;0.00;0.62;2.03;1.80;;;32.90;30.70;;;;;;2265066;61;20895;-53
2023/08/26 00:04:33;0.00;0.00;0.62;0.00;0.00;0.62;2.60;1.97;;;32.80;30.60;;;;;;2264918;61;20887;-56
2023/08/26 00:07:19;0.00;0.00;0.62;0.00;0.00;0.62;2.70;1.90;;;32.80;30.60;;;;;;2264669;61;20348;-57
2023/08/26 00:10:04;0.00;0.00;0.62;0.00;0.00;0.62;2.60;2.13;;;32.80;30.60;;;;;;2264926;61;20491;-53
2023/08/26 00:12:49;0.00;0.00;0.62;0.00;0.00;0.62;2.43;1.93;;;32.80;30.70;;;;;;2264891;61;20422;-58
2023/08/26 00:15:34;0.00;0.00;0.62;0.00;0.00;0.62;2.57;1.87;;;32.80;30.70;;;;;;2264760;61;20519;-55
2023/08/26 00:18:19;0.00;0.00;0.62;0.00;0.00;0.62;2.73;2.00;;;32.80;30.70;;;;;;2265049;61;20367;-57
2023/08/26 00:21:03;0.00;0.00;0.62;0.00;0.00;0.62;2.03;1.83;;;32.80;30.70;;;;;;2264603;61;20368;-56
2023/08/26 00:23:49;0.00;0.00;0.62;0.00;0.00;0.62;2.43;2.07;;;32.80;30.70;;;;;;2264818;61;20414;-54
2023/08/26 00:26:34;0.00;0.00;0.62;0.00;0.00;0.62;3.03;1.97;;;32.80;30.80;;;;;;2265099;61;20387;-56
2023/08/26 00:29:19;0.00;0.00;0.62;0.00;0.00;0.62;2.70;1.90;;;32.80;30.70;;;;;;2264334;61;20397;-55
2023/08/26 00:32:04;0.00;0.00;0.62;0.00;0.00;0.62;2.20;1.83;;;32.80;30.80;;;;;;2264758;61;20367;-52
2023/08/26 00:34:49;0.00;0.00;0.62;0.00;0.00;0.62;2.30;2.10;;;32.80;30.80;;;;;;2264324;61;20782;-52
2023/08/26 00:37:33;0.00;0.00;0.62;0.00;0.00;0.62;2.43;2.23;;;32.80;30.80;;;;;;2264364;61;20782;-56
2023/08/26 00:40:20;0.00;0.00;0.62;0.00;0.00;0.62;2.30;2.00;;;32.80;30.80;;;;;;2264413;61;20356;-56
2023/08/26 00:43:10;0.00;0.00;0.62;0.00;0.00;0.62;2.20;1.93;;;32.80;30.80;;;;;;2264126;61;20429;-55
2023/08/26 00:45:58;0.00;0.00;0.62;0.00;0.00;0.62;2.67;2.20;;;32.80;30.80;;;;;;2265126;61;20403;-56
2023/08/26 00:48:43;0.00;0.00;0.62;0.00;0.00;0.62;1.90;1.67;;;32.80;30.90;;;;;;2264542;61;20445;-54
2023/08/26 00:51:28;0.00;0.00;0.62;0.00;0.00;0.62;2.90;2.00;;;32.80;30.90;;;;;;2264578;61;20461;-57
2023/08/26 00:54:13;0.00;0.00;0.62;0.00;0.00;0.62;2.57;2.13;;;32.70;30.80;;;;;;2264689;61;20379;-56
2023/08/26 00:56:59;0.00;0.00;0.62;0.00;0.00;0.62;4.47;2.10;;;32.70;30.80;;;;;;2264102;61;20360;-56
2023/08/26 00:59:44;0.00;0.00;0.62;0.00;0.00;0.62;2.20;2.00;;;32.70;30.80;;;;;;2263899;61;20380;-57
2023/08/26 01:02:29;0.00;0.00;0.62;0.00;0.00;0.62;2.00;1.67;;;32.70;30.80;;;;;;2263932;61;20383;-51
2023/08/26 01:05:14;0.00;0.00;0.62;0.00;0.00;0.62;2.20;1.93;;;32.70;30.80;;;;;;2264275;61;20794;-53
2023/08/26 01:08:01;0.00;0.00;0.62;0.00;0.00;0.62;2.77;2.10;;;32.70;30.80;;;;;;2264367;61;20392;-56
2023/08/26 01:11:08;0.00;0.00;0.62;0.00;0.00;0.62;3.27;2.40;;;32.70;30.80;;;;;;2264451;61;20475;-56
2023/08/26 01:14:07;0.00;0.00;0.62;0.00;0.00;0.62;2.70;2.20;;;32.70;30.80;;;;;;2264020;61;20762;-57
2023/08/26 01:16:52;0.00;0.00;0.62;0.00;0.00;0.62;2.30;2.10;;;32.70;30.80;;;;;;2265073;61;20369;-52
2023/08/26 01:19:39;0.00;0.00;0.62;0.00;0.00;0.62;2.47;2.10;;;32.70;30.90;;;;;;2264374;61;20363;-56
2023/08/26 01:22:27;0.00;0.00;0.62;0.00;0.00;0.62;2.10;1.90;;;32.70;30.80;;;;;;2264446;61;20431;-55
2023/08/26 01:25:13;0.00;0.00;0.62;0.00;0.00;0.62;2.60;2.33;;;32.70;30.80;;;;;;2264560;61;20412;-56
2023/08/26 01:27:58;0.00;0.00;0.62;0.00;0.00;0.62;2.77;2.47;;;32.60;30.80;;;;;;2263983;61;20898;-54
2023/08/26 01:30:43;0.00;0.00;0.62;0.00;0.00;0.62;3.43;2.03;;;32.60;30.80;;;;;;2264015;61;20364;-55
2023/08/26 01:33:33;0.00;0.00;0.62;0.00;0.00;0.62;3.30;2.10;;;32.60;30.90;;;;;;2264514;61;20765;-52
2023/08/26 01:36:23;0.00;0.00;0.62;0.00;0.00;0.62;3.70;2.97;;;32.60;30.80;;;;;;2262511;61;20443;-57
2023/08/26 01:39:09;0.00;0.00;0.62;0.00;0.00;0.62;3.13;2.20;;;32.60;30.80;;;;;;2264803;61;20383;-56
2023/08/26 01:42:00;0.00;0.00;0.62;0.00;0.00;0.62;2.50;2.30;;;32.60;30.90;;;;;;2264145;61;20752;-53
2023/08/26 01:44:45;0.00;0.00;0.62;0.00;0.00;0.62;2.97;2.60;;;32.60;30.90;;;;;;2264114;61;20403;-54
2023/08/26 01:47:31;0.00;0.00;0.62;0.00;0.00;0.62;2.57;2.33;;;32.60;30.90;;;;;;2264583;61;20364;-57
2023/08/26 01:50:15;0.00;0.00;0.62;0.00;0.00;0.62;2.67;2.47;;;32.60;30.90;;;;;;2263959;61;20364;-56
2023/08/26 01:53:00;0.00;0.00;0.62;0.00;0.00;0.62;3.00;2.60;;;32.60;30.90;;;;;;2263965;61;20345;-56
2023/08/26 01:55:44;0.00;0.00;0.62;0.00;0.00;0.62;3.23;2.23;;;32.60;30.90;;;;;;2264079;61;20403;-64
2023/08/26 01:58:30;0.00;0.00;0.62;0.00;0.00;0.62;2.70;2.50;;;32.60;30.90;;;;;;2263769;61;20446;-55
2023/08/26 02:01:15;0.00;0.00;0.62;0.00;0.00;0.62;4.80;2.90;;;32.60;30.90;;;;;;2264269;61;20364;-56
2023/08/26 02:04:00;0.00;0.00;0.62;0.00;0.00;0.62;3.47;3.10;;;32.60;31.00;;;;;;2263803;61;20450;-54
2023/08/26 02:06:45;0.00;0.00;0.62;0.00;0.00;0.62;3.63;3.33;;;32.60;31.00;;;;;;2264641;61;20963;-55
2023/08/26 02:09:30;0.00;0.00;0.62;0.00;0.00;0.62;2.73;2.53;;;32.60;31.00;;;;;;2264211;61;20828;-54
2023/08/26 02:12:14;0.00;0.00;0.62;0.00;0.00;0.62;3.07;2.80;;;32.60;31.00;;;;;;2264209;61;20855;-56
2023/08/26 02:15:01;0.00;0.00;0.62;0.00;0.00;0.62;3.80;3.50;;;32.60;31.00;;;;;;2263430;61;20417;-53
2023/08/26 02:17:47;0.00;0.00;0.62;0.00;0.00;0.62;2.80;2.53;;;32.60;31.00;;;;;;2264283;61;20437;-53
2023/08/26 02:20:32;0.00;0.00;0.62;0.00;0.00;0.62;3.03;2.60;;;32.60;31.00;;;;;;2263803;61;20348;-56
2023/08/26 02:23:17;0.00;0.00;0.62;0.00;0.00;0.62;3.37;3.07;;;32.50;30.90;;;;;;2263252;61;20458;-56
2023/08/26 02:26:01;0.00;0.00;0.62;0.00;0.00;0.62;3.20;2.80;;;32.50;30.90;;;;;;2263834;61;20712;-58
2023/08/26 02:28:46;0.00;0.00;0.62;0.00;0.00;0.62;4.30;2.67;;;32.50;30.90;;;;;;2264103;61;20434;-53
2023/08/26 02:31:32;0.00;0.00;0.62;0.00;0.00;0.62;3.03;2.73;;;32.50;30.90;;;;;;2263695;61;20348;-57
2023/08/26 02:34:16;0.00;0.00;0.62;0.00;0.00;0.62;2.93;2.73;;;32.50;30.90;;;;;;2263259;61;20489;-54
2023/08/26 02:37:00;0.00;0.00;0.62;0.00;0.00;0.62;3.00;2.70;;;32.50;30.90;;;;;;2264497;61;20364;-57
2023/08/26 02:39:45;0.00;0.00;0.62;0.00;0.00;0.62;3.60;3.30;;;32.50;30.90;;;;;;2264314;61;20562;-52
2023/08/26 02:42:30;0.00;0.00;0.62;0.00;0.00;0.62;3.33;3.03;;;32.50;30.90;;;;;;2263783;61;20383;-54
2023/08/26 02:45:15;0.00;0.00;0.62;0.00;0.00;0.62;4.60;3.80;;;32.50;31.00;;;;;;2263962;61;20380;-55
2023/08/26 02:48:01;0.00;0.00;0.62;0.00;0.00;0.62;3.20;2.90;;;32.50;31.00;;;;;;2263767;61;20363;-56
2023/08/26 02:50:45;0.00;0.00;0.62;0.00;0.00;0.62;3.40;3.07;;;32.50;31.00;;;;;;2263957;61;20349;-54
2023/08/26 02:53:30;0.00;0.00;0.62;0.00;0.00;0.62;4.13;3.17;;;32.50;31.00;;;;;;2264196;61;20376;-56
2023/08/26 02:56:16;0.00;0.00;0.62;0.00;0.00;0.62;3.90;3.50;;;32.50;31.00;;;;;;2263951;61;20531;-55
2023/08/26 02:59:01;0.00;0.00;0.62;0.00;0.00;0.62;3.80;3.50;;;32.50;31.00;;;;;;2264067;61;20355;-55
2023/08/26 03:01:45;0.00;0.00;0.62;0.00;0.00;0.62;3.37;3.07;;;32.50;31.00;;;;;;2264514;61;20364;-52
2023/08/26 03:04:31;0.00;0.00;0.62;0.00;0.00;0.62;4.20;3.80;;;32.50;31.00;;;;;;2263828;61;20360;-54
2023/08/26 03:07:17;0.00;0.00;0.62;0.00;0.00;0.62;3.40;3.10;;;32.50;31.00;;;;;;2264192;61;20372;-55
2023/08/26 03:10:01;0.00;0.00;0.62;0.00;0.00;0.62;3.87;3.07;;;32.50;31.00;;;;;;2263980;61;20352;-55
2023/08/26 03:12:46;0.00;0.00;0.62;0.00;0.00;0.62;3.87;3.47;;;32.50;31.00;;;;;;2264170;61;20911;-58
2023/08/26 03:15:30;0.00;0.00;0.62;0.00;0.00;0.62;4.00;3.27;;;32.50;31.00;;;;;;2264476;61;20452;-53
2023/08/26 03:18:15;0.00;0.00;0.62;0.00;0.00;0.62;3.57;3.10;;;32.50;31.00;;;;;;2263717;61;20406;-56
2023/08/26 03:21:07;0.00;0.00;0.62;0.00;0.00;0.62;4.00;3.60;;;32.50;31.00;;;;;;2264048;61;20360;-54
2023/08/26 03:23:52;0.00;0.00;0.62;0.00;0.00;0.62;3.77;3.47;;;32.40;30.90;;;;;;2264150;61;20480;-54
2023/08/26 03:26:36;0.00;0.00;0.62;0.00;0.00;0.62;3.80;3.40;;;32.40;30.90;;;;;;2263712;61;20388;-57
2023/08/26 03:29:21;0.00;0.00;0.62;0.00;0.00;0.62;3.43;3.13;;;32.40;30.90;;;;;;2263816;61;20372;-58
2023/08/26 03:32:07;0.00;0.00;0.62;0.00;0.00;0.62;5.80;3.63;;;32.40;30.90;;;;;;2263850;61;20345;-57
2023/08/26 03:34:51;0.00;0.00;0.62;0.00;0.00;0.62;3.50;3.20;;;32.40;30.90;;;;;;2262733;61;20430;-57
2023/08/26 03:37:37;0.00;0.00;0.62;0.00;0.00;0.62;3.80;3.50;;;32.40;30.90;;;;;;2260932;61;20368;-56
2023/08/26 03:40:24;0.00;0.00;0.62;0.00;0.00;0.62;3.90;3.60;;;32.40;30.90;;;;;;2263829;61;20367;-54
2023/08/26 03:43:09;0.00;0.00;0.62;0.00;0.00;0.62;3.60;3.30;;;32.40;30.90;;;;;;2263621;61;20379;-53
2023/08/26 03:45:54;0.00;0.00;0.62;0.00;0.00;0.62;3.70;3.40;;;32.40;31.00;;;;;;2264337;61;20834;-53
2023/08/26 03:48:38;0.00;0.00;0.62;0.00;0.00;0.62;4.50;3.97;;;32.40;31.00;;;;;;2263730;61;20368;-57
2023/08/26 03:51:23;0.00;0.00;0.62;0.00;0.00;0.62;3.87;3.50;;;32.40;31.00;;;;;;2263896;61;20457;-55
2023/08/26 03:54:09;0.00;0.00;0.62;0.00;0.00;0.62;4.83;4.07;;;32.40;31.00;;;;;;2263694;61;20805;-51
2023/08/26 03:56:54;0.00;0.00;0.62;0.00;0.00;0.62;4.80;4.10;;;32.40;31.00;;;;;;2263421;61;20398;-51
2023/08/26 03:59:40;0.00;0.00;0.62;0.00;0.00;0.62;4.43;4.03;;;32.40;31.00;;;;;;2263799;61;20873;-56
2023/08/26 04:02:24;0.00;0.00;0.62;0.00;0.00;0.62;4.70;3.43;;;32.40;31.00;;;;;;2264049;61;20387;-53
2023/08/26 04:05:09;0.00;0.00;0.62;0.00;0.00;0.62;3.97;3.60;;;32.40;31.00;;;;;;2263861;61;20400;-52
2023/08/26 04:07:54;0.00;0.00;0.62;0.00;0.00;0.62;3.80;3.40;;;32.40;31.00;;;;;;2263887;61;20643;-51
2023/08/26 04:10:40;0.00;0.00;0.62;0.00;0.00;0.62;3.67;3.37;;;32.40;31.00;;;;;;2263113;61;20348;-50
2023/08/26 04:13:26;0.00;0.00;0.62;0.00;0.00;0.62;4.27;3.93;;;32.40;31.00;;;;;;2263314;61;20368;-53
2023/08/26 04:16:12;0.00;0.00;0.62;0.00;0.00;0.62;5.20;3.63;;;32.40;31.00;;;;;;2263556;61;20386;-56
2023/08/26 04:18:58;0.00;0.00;0.62;0.00;0.00;0.62;3.97;3.67;;;32.40;31.10;;;;;;2263884;61;21019;-54
2023/08/26 04:21:42;0.00;0.00;0.62;0.00;0.00;0.62;4.00;3.70;;;32.40;31.00;;;;;;2263906;61;20455;-54
2023/08/26 04:24:27;0.00;0.00;0.62;0.00;0.00;0.62;3.90;3.60;;;32.40;31.00;;;;;;2264796;61;20447;-54
2023/08/26 04:27:14;0.00;0.00;0.62;0.00;0.00;0.62;3.60;3.30;;;32.40;31.00;;;;;;2264315;61;20364;-53
2023/08/26 04:29:59;0.00;0.00;0.62;0.00;0.00;0.62;4.00;3.60;;;32.30;31.00;;;;;;2264663;61;20487;-61
2023/08/26 04:32:45;0.00;0.00;0.62;0.00;0.00;0.62;4.80;4.37;;;32.30;31.00;;;;;;2264642;61;20360;-55
2023/08/26 04:35:30;0.00;0.00;0.62;0.00;0.00;0.62;3.93;3.63;;;32.30;31.00;;;;;;2265016;61;20469;-56
2023/08/26 04:38:15;0.00;0.00;0.62;0.00;0.00;0.62;4.73;3.83;;;32.30;31.00;;;;;;2264591;61;20360;-55
2023/08/26 04:40:59;0.00;0.00;0.62;0.00;0.00;0.62;3.80;3.50;;;32.30;31.00;;;;;;2264502;61;20364;-56
2023/08/26 04:43:46;0.00;0.00;0.62;0.00;0.00;0.62;4.07;3.67;;;32.30;31.00;;;;;;2264098;61;20411;-58
2023/08/26 04:46:31;0.00;0.00;0.62;0.00;0.00;0.62;3.60;3.30;;;32.30;31.00;;;;;;2264548;61;20531;-56
2023/08/26 04:49:16;0.00;0.00;0.62;0.00;0.00;0.62;5.67;3.57;;;32.30;31.10;;;;;;2264488;61;20360;-56
2023/08/26 04:52:01;0.00;0.00;0.62;0.00;0.00;0.62;4.20;3.80;;;32.30;31.00;;;;;;2264905;61;20372;-54
2023/08/26 04:54:46;0.00;0.00;0.62;0.00;0.00;0.62;3.70;3.40;;;32.30;31.10;;;;;;2263883;61;21229;-53
2023/08/26 04:57:30;0.00;0.00;0.62;0.00;0.00;0.62;3.57;3.27;;;32.30;31.00;;;;;;2264880;61;20449;-56
2023/08/26 05:00:17;0.00;0.00;0.62;0.00;0.00;0.62;4.37;3.97;;;32.30;31.00;;;;;;2264495;61;20390;-53
2023/08/26 05:03:01;0.00;0.00;0.62;0.00;0.00;0.62;3.87;3.50;;;32.30;31.10;;;;;;2264236;61;20392;-51
2023/08/26 05:05:46;0.00;0.00;0.62;0.00;0.00;0.62;4.03;3.63;;;32.30;31.10;;;;;;2264997;61;20464;-57
2023/08/26 05:08:30;0.00;0.00;0.62;0.00;0.00;0.62;4.37;3.97;;;32.30;31.00;;;;;;2264569;61;20403;-56
2023/08/26 05:11:15;0.00;0.00;0.62;0.00;0.00;0.62;4.00;3.70;;;32.20;31.00;;;;;;2263913;61;20835;-54
2023/08/26 05:13:59;0.00;0.00;0.62;0.00;0.00;0.62;3.73;3.43;;;32.20;31.00;;;;;;2264735;61;20356;-56
2023/08/26 05:16:45;0.00;0.00;0.62;0.00;0.00;0.62;3.67;3.20;;;32.20;31.00;;;;;;2264096;61;20384;-56
2023/08/26 05:19:30;0.00;0.00;0.62;0.00;0.00;0.62;4.33;4.00;;;32.20;31.00;;;;;;2264840;61;20437;-56
2023/08/26 05:22:15;0.00;0.00;0.62;0.00;0.00;0.62;4.17;3.80;;;32.20;31.00;;;;;;2264273;61;20395;-53
2023/08/26 05:25:00;0.00;0.00;0.62;0.00;0.00;0.62;4.10;3.80;;;32.20;31.00;;;;;;2263670;61;20387;-55
2023/08/26 05:27:44;0.00;0.00;0.62;0.00;0.00;0.62;7.20;3.97;;;32.20;31.00;;;;;;2264898;61;20391;-56
2023/08/26 05:30:30;0.00;0.00;0.62;0.00;0.00;0.62;4.70;3.93;;;32.20;31.10;;;;;;2264333;61;20418;-53
2023/08/26 05:33:16;0.00;0.00;0.62;0.00;0.00;0.62;4.73;4.33;;;32.20;31.10;;;;;;2264114;61;20442;-58
2023/08/26 05:36:00;0.00;0.00;0.62;0.00;0.00;0.62;5.23;4.10;;;32.20;31.10;;;;;;2264212;61;20391;-54
2023/08/26 05:38:45;0.00;0.00;0.62;0.00;0.00;0.62;4.00;3.70;;;32.20;31.10;;;;;;2264519;61;20456;-54
2023/08/26 05:41:29;0.00;0.00;0.62;0.00;0.00;0.62;4.37;3.97;;;32.20;31.10;;;;;;2264224;61;20464;-57
2023/08/26 05:44:14;0.00;0.00;0.62;0.00;0.00;0.62;4.50;4.10;;;32.20;31.10;;;;;;2263844;61;20423;-54
2023/08/26 05:46:58;0.00;0.00;0.62;0.00;0.00;0.62;4.30;3.70;;;32.20;31.10;;;;;;2264019;61;20364;-57
2023/08/26 05:49:45;0.00;0.00;0.62;0.00;0.00;0.62;4.47;4.07;;;32.20;31.10;;;;;;2264673;61;20402;-55
2023/08/26 05:52:29;0.00;0.00;0.62;0.00;0.00;0.62;3.63;3.33;;;32.20;31.10;;;;;;2264266;61;20413;-60
2023/08/26 05:55:14;0.00;0.00;0.62;0.00;0.00;0.62;3.73;3.33;;;32.20;31.10;;;;;;2263763;61;20403;-56
2023/08/26 05:57:59;0.00;0.00;0.62;0.00;0.00;0.62;4.30;3.90;;;32.20;31.20;;;;;;2264000;61;20479;-54
2023/08/26 06:00:43;0.00;0.00;0.62;0.00;0.00;0.62;4.10;3.70;;;32.20;31.10;;;;;;2264567;61;20877;-51
2023/08/26 06:03:28;0.00;0.00;0.62;0.00;0.00;0.62;4.20;3.80;;;32.20;31.20;;;;;;2263834;61;20438;-55
2023/08/26 06:06:14;0.00;0.00;0.62;0.00;0.00;0.62;3.77;3.47;;;32.20;31.20;;;;;;2264863;61;20380;-54
2023/08/26 06:08:59;0.00;0.00;0.62;0.00;0.00;0.62;4.43;4.03;;;32.20;31.10;;;;;;2263787;61;20510;-56
2023/08/26 06:11:43;0.00;0.00;0.62;0.00;0.00;0.62;3.60;3.30;;;32.20;31.10;;;;;;2264376;61;20395;-55
2023/08/26 06:14:29;0.00;0.00;0.62;0.00;0.00;0.62;3.47;3.17;;;32.20;31.10;;;;;;2263931;61;20357;-55
2023/08/26 06:17:14;0.00;0.00;0.62;0.00;0.00;0.62;4.60;3.73;;;32.20;31.10;;;;;;2263860;61;20413;-55
2023/08/26 06:19:58;0.00;0.00;0.62;0.00;0.00;0.62;4.43;4.03;;;32.20;31.10;;;;;;2264630;61;20360;-54
2023/08/26 06:22:45;0.00;0.00;0.62;0.00;0.00;0.62;5.00;3.70;;;32.20;31.10;;;;;;2264109;61;20377;-56
2023/08/26 06:25:30;0.00;0.00;0.62;0.00;0.00;0.62;3.70;3.40;;;32.20;31.10;;;;;;2263894;61;20441;-53
2023/08/26 06:28:14;0.00;0.00;0.62;0.00;0.00;0.62;4.10;3.70;;;32.20;31.10;;;;;;2264164;61;20437;-57
2023/08/26 06:30:59;0.00;0.00;0.62;0.00;0.00;0.62;4.17;3.40;;;32.20;31.00;;;;;;2263929;61;20417;-56
2023/08/26 06:33:49;0.00;0.00;0.62;0.00;0.00;0.62;4.10;3.80;;;32.20;31.00;;;;;;2263673;61;20773;-54
2023/08/26 06:36:34;0.00;0.00;0.62;0.00;0.00;0.62;3.40;3.10;;;32.20;31.00;;;;;;2264192;61;20387;-57
2023/08/26 06:39:20;0.00;0.00;0.62;0.00;0.00;0.62;3.70;3.40;;;32.20;31.00;;;;;;2263856;61;20399;-56
2023/08/26 06:42:05;0.00;0.00;0.62;0.00;0.00;0.62;3.37;3.07;;;32.20;31.00;;;;;;2264641;61;20367;-55
2023/08/26 06:44:57;0.00;0.00;0.62;0.00;0.00;0.62;4.20;3.53;;;32.20;31.10;;;;;;2263835;61;20942;-56
2023/08/26 06:47:42;0.00;0.00;0.62;0.00;0.00;0.62;3.87;3.50;;;32.20;31.10;;;;;;2264312;61;20692;-56
2023/08/26 06:50:26;0.00;0.00;0.62;0.00;0.00;0.62;3.70;3.40;;;32.20;31.00;;;;;;2264298;61;20414;-56
2023/08/26 06:53:11;0.00;0.00;0.62;0.00;0.00;0.62;4.07;3.77;;;32.20;31.00;;;;;;2264126;61;20388;-55
2023/08/26 06:55:57;0.00;0.00;0.62;0.00;0.00;0.62;3.53;3.23;;;32.20;31.00;;;;;;2264551;61;20930;-55
2023/08/26 06:58:41;0.00;0.00;0.62;0.00;0.00;0.62;4.47;3.40;;;32.20;31.00;;;;;;2264266;61;20368;-54
2023/08/26 07:01:26;0.00;0.00;0.62;0.00;0.00;0.62;3.47;3.17;;;32.20;31.00;;;;;;2263916;61;20410;-55
2023/08/26 07:04:12;0.00;0.00;0.62;0.00;0.00;0.62;3.40;3.10;;;32.20;30.90;;;;;;2263239;61;20446;-52
2023/08/26 07:06:56;0.00;0.00;0.62;0.00;0.00;0.62;3.73;3.43;;;32.20;30.90;;;;;;2264151;61;20347;-52
2023/08/26 07:09:41;0.00;0.00;0.62;0.00;0.00;0.62;4.50;3.30;;;32.20;30.80;;;;;;2263827;61;20458;-54
2023/08/26 07:12:27;0.00;0.00;0.62;0.00;0.00;0.62;3.80;2.97;;;32.20;30.80;;;;;;2264029;61;20407;-54
2023/08/26 07:15:11;0.00;0.00;0.62;0.00;0.00;0.62;3.67;3.10;;;32.10;30.60;;;;;;2263699;61;20781;-56
2023/08/26 07:17:56;0.00;0.00;0.62;0.00;0.00;0.62;3.00;2.80;;;32.20;30.60;;;;;;2264372;61;20619;-54
2023/08/26 07:20:43;0.00;0.00;0.62;0.00;0.00;0.62;4.37;2.97;;;32.10;30.50;;;;;;2264464;61;20375;-55
2023/08/26 07:23:27;0.00;0.00;0.62;0.00;0.00;0.62;2.67;2.47;;;32.10;30.40;;;;;;2263980;61;20487;-55
2023/08/26 07:26:12;0.00;0.00;0.62;0.00;0.00;0.62;2.60;2.40;;;32.20;30.40;;;;;;2264130;61;20384;-57
2023/08/26 07:28:58;0.00;0.00;0.62;0.00;0.00;0.62;2.97;2.67;;;32.10;30.20;;;;;;2264554;61;20368;-54
2023/08/26 07:31:43;0.00;0.00;0.62;0.00;0.00;0.62;4.17;3.13;;;32.10;30.20;;;;;;2264249;61;20367;-56
2023/08/26 07:34:28;0.00;0.00;0.62;0.00;0.00;0.62;2.60;2.40;;;32.10;30.10;;;;;;2263974;61;20356;-56
2023/08/26 07:37:13;0.00;0.00;0.62;0.00;0.00;0.62;3.90;2.70;;;32.10;30.10;;;;;;2264386;61;20779;-55
2023/08/26 07:40:00;0.00;0.00;0.62;0.00;0.00;0.62;3.60;2.60;;;32.10;30.00;;;;;;2263879;61;20588;-58
2023/08/26 07:42:45;0.00;0.00;0.62;0.00;0.00;0.62;4.07;2.77;;;32.10;30.00;;;;;;2264662;61;20384;-53
2023/08/26 07:45:31;0.00;0.00;0.62;0.00;0.00;0.62;2.57;2.37;;;32.10;30.00;;;;;;2263937;61;20383;-56
2023/08/26 07:48:15;0.00;0.00;0.62;0.00;0.00;0.62;3.50;2.47;;;32.10;30.00;;;;;;2264307;61;20805;-55
2023/08/26 07:51:00;0.00;0.00;0.62;0.00;0.00;0.62;2.80;2.03;;;32.10;30.00;;;;;;2264455;61;20344;-53
2023/08/26 07:53:44;0.00;0.00;0.62;0.00;0.00;0.62;2.90;2.40;;;32.10;29.90;;;;;;2263847;61;20854;-56
2023/08/26 07:56:29;0.00;0.00;0.62;0.00;0.00;0.62;2.57;2.00;;;32.10;29.90;;;;;;2264291;61;20386;-54
2023/08/26 07:59:14;0.00;0.00;0.62;0.00;0.00;0.62;2.87;2.03;;;32.10;29.80;;;;;;2265293;61;20896;-61
2023/08/26 08:02:00;0.00;0.00;0.62;0.00;0.00;0.62;2.50;2.00;;;32.10;29.80;;;;;;2264878;61;20938;-56
2023/08/26 08:04:44;0.00;0.00;0.62;0.00;0.00;0.62;2.57;2.00;;;32.10;29.70;;;;;;2265237;61;20784;-57
2023/08/26 08:07:29;0.00;0.00;0.62;0.00;0.00;0.62;2.50;2.30;;;32.00;29.60;;;;;;2264987;61;20364;-53
2023/08/26 08:10:13;0.00;0.00;0.62;0.00;0.00;0.62;2.40;2.07;;;32.00;29.60;;;;;;2265100;61;20372;-53
2023/08/26 08:12:58;0.00;0.00;0.62;0.00;0.00;0.62;2.87;2.00;;;32.00;29.60;;;;;;2265054;61;20497;-56
2023/08/26 08:15:43;0.00;0.00;0.62;0.00;0.00;0.62;2.23;1.83;;;32.00;29.60;;;;;;2264674;61;20384;-61
2023/08/26 08:18:29;0.00;0.00;0.62;0.00;0.00;0.62;2.33;1.70;;;32.00;29.50;;;;;;2264932;61;20344;-53
2023/08/26 08:21:13;0.00;0.00;0.62;0.00;0.00;0.62;1.97;1.63;;;32.00;29.40;;;;;;2264901;61;20372;-56
2023/08/26 08:24:00;0.00;0.00;0.62;0.00;0.00;0.62;2.00;1.57;;;32.00;29.40;;;;;;2264501;61;20376;-55
2023/08/26 08:26:44;0.00;0.00;0.62;0.00;0.00;0.62;2.50;1.90;;;32.00;29.40;;;;;;2265104;61;20400;-55
2023/08/26 08:29:29;0.00;0.00;0.62;0.00;0.00;0.62;2.43;1.53;;;32.00;29.30;;;;;;2264809;61;20804;-56
2023/08/26 08:32:13;0.00;0.00;0.62;0.00;0.00;0.62;3.00;1.90;;;32.00;29.20;;;;;;2265011;61;20487;-56
2023/08/26 08:34:59;0.00;0.00;0.62;0.00;0.00;0.62;2.50;1.90;;;32.00;29.20;;;;;;2264910;61;20395;-53
2023/08/26 08:37:44;0.00;0.00;0.62;0.00;0.00;0.62;3.03;1.73;;;32.00;29.10;;;;;;2264678;61;20368;-57
2023/08/26 08:40:29;0.00;0.00;0.62;0.00;0.00;0.62;2.00;1.50;;;32.00;29.00;;;;;;2265223;61;20460;-54
2023/08/26 08:43:18;0.00;0.00;0.62;0.00;0.00;0.62;2.07;1.50;;;32.00;29.00;;;;;;2264723;61;20384;-56
2023/08/26 08:46:03;0.00;0.00;0.62;0.00;0.00;0.62;3.03;1.37;;;32.00;28.90;;;;;;2264753;61;20430;-52
2023/08/26 08:48:48;0.00;0.00;0.62;0.00;0.00;0.62;2.60;1.40;;;31.90;28.80;;;;;;2265028;61;20436;-55
2023/08/26 08:51:36;0.00;0.00;0.62;0.00;0.00;0.62;3.20;1.63;;;31.90;28.80;;;;;;2264612;61;20345;-54
2023/08/26 08:54:21;0.00;0.00;0.62;0.00;0.00;0.62;2.10;1.40;;;31.90;28.70;;;;;;2264904;61;20353;-60
2023/08/26 08:57:07;0.00;0.00;0.62;0.00;0.00;0.62;2.67;1.40;;;31.90;28.60;;;;;;2264657;61;20384;-53
2023/08/26 08:59:54;0.00;0.00;0.62;0.00;0.00;0.62;4.37;1.90;;;31.90;28.60;;;;;;2264611;61;20927;-55
2023/08/26 09:02:40;0.00;0.00;0.62;0.00;0.00;0.62;2.10;1.63;;;31.90;28.50;;;;;;2264990;61;20367;-56
2023/08/26 09:05:26;0.00;0.00;0.62;0.00;0.00;0.62;3.83;2.00;;;31.90;28.50;;;;;;2265067;61;20578;-55
2023/08/26 09:08:16;0.00;0.00;0.62;0.00;0.00;0.62;1.90;1.50;;;31.90;28.40;;;;;;2264708;61;20372;-54
2023/08/26 09:11:01;0.00;0.00;0.62;0.00;0.00;0.62;2.40;1.30;;;31.90;28.40;;;;;;2264815;61;20372;-56
2023/08/26 09:13:45;0.00;0.00;0.62;0.00;0.00;0.62;1.80;1.30;;;31.90;28.30;;;;;;2264430;61;20437;-54
2023/08/26 09:16:34;0.00;0.00;0.62;0.00;0.00;0.62;1.60;1.27;;;31.90;28.30;;;;;;2265089;61;20379;-56
2023/08/26 09:19:19;0.00;0.00;0.62;0.00;0.00;0.62;2.30;1.60;;;31.90;28.30;;;;;;2264897;61;20857;-53
2023/08/26 09:22:07;0.00;0.00;0.62;0.00;0.00;0.62;3.07;1.80;;;31.90;28.20;;;;;;2264730;61;21041;-55
2023/08/26 09:24:58;0.00;0.00;0.62;0.00;0.00;0.62;2.33;1.53;;;31.90;28.20;;;;;;2264926;61;20449;-56
2023/08/26 09:27:43;0.00;0.00;0.62;0.00;0.00;0.62;2.30;1.40;;;31.90;28.30;;;;;;2264793;61;20368;-56
2023/08/26 09:30:28;0.00;0.00;0.62;0.00;0.00;0.62;2.63;1.60;;;31.80;28.10;;;;;;2264928;61;20427;-56
2023/08/26 09:33:13;0.00;0.00;0.62;0.00;0.00;0.62;2.13;1.20;;;31.90;28.10;;;;;;2264685;61;20425;-56
2023/08/26 09:35:58;0.00;0.00;0.62;0.00;0.00;0.62;2.40;1.43;;;31.90;28.10;;;;;;2264370;61;20658;-58
2023/08/26 09:38:44;0.00;0.00;0.62;0.00;0.00;0.62;1.97;1.40;;;31.90;28.10;;;;;;2264833;61;20769;-54
2023/08/26 09:41:31;0.00;0.00;0.62;0.00;0.00;0.62;2.53;1.50;;;31.80;28.00;;;;;;2264848;61;20475;-57
2023/08/26 09:44:17;0.00;0.00;0.62;0.00;0.00;0.62;3.10;1.63;;;31.80;28.00;;;;;;2264246;61;20433;-58
2023/08/26 09:47:03;0.00;0.00;0.62;0.00;0.00;0.62;2.77;1.40;;;31.80;28.00;;;;;;2264765;61;20411;-57
2023/08/26 09:49:50;0.00;0.00;0.62;0.00;0.00;0.62;1.80;1.33;;;31.80;28.00;;;;;;2264954;61;20368;-56
2023/08/26 09:52:42;0.00;0.00;0.62;0.00;0.00;0.62;2.50;1.10;;;31.80;28.10;;;;;;2264746;61;20373;-54
2023/08/26 09:55:28;0.00;0.00;0.62;0.00;0.00;0.62;2.33;1.40;;;31.80;28.10;;;;;;2264586;61;20388;-57
2023/08/26 09:58:14;0.00;0.00;0.62;0.00;0.00;0.62;2.20;1.37;;;31.80;28.10;;;;;;2264568;61;20395;-54
2023/08/26 10:01:03;0.00;0.00;0.62;0.00;0.00;0.62;3.20;1.20;;;31.80;28.10;;;;;;2264191;61;20353;-54
2023/08/26 10:03:53;0.00;0.00;0.62;0.00;0.00;0.62;1.97;1.13;;;31.90;28.10;;;;;;2264662;61;20887;-56
2023/08/26 10:06:43;0.00;0.00;0.62;0.00;0.00;0.62;2.33;1.37;;;31.80;28.00;;;;;;2264565;61;20387;-57
2023/08/26 10:09:39;0.00;0.00;0.62;0.00;0.00;0.62;2.17;1.30;;;31.80;28.00;;;;;;2264691;61;20490;-55
2023/08/26 10:12:30;0.00;0.00;0.62;0.00;0.00;0.62;2.10;1.10;;;31.90;28.10;;;;;;2264626;61;20451;-52
2023/08/26 10:15:19;0.00;0.00;0.62;0.00;0.00;0.62;2.53;1.20;;;31.80;28.00;;;;;;2264070;61;20837;-50
2023/08/26 10:18:13;0.00;0.00;0.62;0.00;0.00;0.62;2.40;1.20;;;31.80;27.90;;;;;;2264344;61;20373;-55
2023/08/26 10:21:02;0.00;0.00;0.62;0.00;0.00;0.62;1.90;1.60;;;31.80;27.90;;;;;;2263784;61;20360;-54
2023/08/26 10:23:48;0.00;0.00;0.62;0.00;0.00;0.62;2.20;1.03;;;31.90;27.90;;;;;;2264084;61;20530;-50
2023/08/26 10:26:33;0.00;0.00;0.62;0.00;0.00;0.62;1.73;1.10;;;31.80;27.90;;;;;;2263960;61;20985;-50
2023/08/26 10:29:18;0.00;0.00;0.62;0.00;0.00;0.62;2.23;1.30;;;31.90;27.90;;;;;;2264422;61;20372;-53
2023/08/26 10:32:17;0.00;0.00;0.62;0.00;0.00;0.62;2.27;1.37;;;31.90;27.90;;;;;;2264713;61;20364;-54
2023/08/26 10:35:11;0.00;0.00;0.62;0.00;0.00;0.62;2.13;1.40;;;31.80;27.80;;;;;;2264486;61;20383;-56
2023/08/26 10:38:10;0.00;0.00;0.62;0.00;0.00;0.62;1.87;1.20;;;31.80;27.80;;;;;;2264533;61;20384;-56
2023/08/26 10:41:09;0.00;0.00;0.62;0.00;0.00;0.62;1.40;0.90;;;31.80;27.70;;;;;;2264599;61;20761;-57
2023/08/26 10:43:55;0.00;0.00;0.62;0.00;0.00;0.62;1.90;1.07;;;31.80;27.70;;;;;;2264067;61;20396;-55
2023/08/26 10:46:55;0.00;0.00;0.62;0.00;0.00;0.62;2.03;1.10;;;31.90;27.80;;;;;;2264594;61;20486;-56
2023/08/26 10:49:42;0.00;0.00;0.62;0.00;0.00;0.62;1.70;1.10;;;31.80;27.70;;;;;;2264474;61;20404;-55
2023/08/26 10:52:31;0.00;0.00;0.62;0.00;0.00;0.62;2.03;1.17;;;31.90;27.70;;;;;;2264619;61;20386;-56
2023/08/26 10:55:24;0.00;0.00;0.62;0.00;0.00;0.62;1.40;0.97;;;31.90;27.80;;;;;;2264512;61;21035;-52